Airfield :
LOGIN :

Register | Disclaimer

   EN    FR    IT 

 










Legend :    VFR   Marginal VFR   IFR   Intensive IFR   Very Intensive IFR
Visi :
Ceiling :
>= 8 km
>= 3000ft
5 to 8 km
1000 to 3000 ft
1500m to 5 km
500 to 1000 ft
800 to 1500m
200 to 500 ft
< 800m
< 200 ft
Symbols :   Thunderstorms  Fog  Heavy snow  Heavy precipitations  Wind > 20 kt
SIGMETs :     Misc.  Thunderstorms  Icing  Turbulence  Mountain Waves  Volcanic Ashes







- Airport Elevation : 101 ft
- IATA code : GLO
- Download approach charts


EGBJ - Gloucestershire

CURRENT METAR :
  • 201620Z 02005KT CAVOK 22/06 Q1028

EXPIRED METARs :
  • 201550Z 01006KT CAVOK 22/06 Q1028
  • 201450Z 01006KT CAVOK 22/08 Q1029
  • 201420Z 02006KT CAVOK 22/08 Q1029
  • 201350Z 02007KT CAVOK 22/06 Q1029
  • 201320Z 02006KT 360V060 CAVOK 21/07 Q1030

TAF TAF EGBJ
Valid from the 20 at 15:00 until the 21 at 00:00 UTC


201358Z 2015/2024 03005KT CAVOK
No reported NOTAMs for that airfield.



MET'MAP, your aeronautical weather chart ! - Copyright ORBIFLY December 2007 - Disclaimer

ORBIFLY MET'MAP TEAM :

Programming & Development : Alexandra Zaïnal
Concept & Development : Baudouin d'Aumeries
Co-Development & Prog : Marc-Olivier Méhu
Technical & hardware support : Manuel Goepfert

Contact : metmap@orbifly.com




SOURCES & CREDITS :

   NOAA